Time;durP1;ratioP1;P1;durP2;ratioP2;P2;SDS_P1;SDS_P2;PMS_P1;PMS_P2;Temp;Humidity;BMP_temperature;BMP_pressure;BME280_temperature;BME280_humidity;BME280_pressure;Samples;Min_cycle;Max_cycle;Signal;HPM_P1;HPM_P2
2021/10/09 00:01:07;;;;;;;20.20;10.77;;;8.60;94.80;;;;;;5103307;28;20197;-69
2021/10/09 00:03:34;;;;;;;24.83;11.97;;;8.60;94.90;;;;;;5109380;28;20230;-67
2021/10/09 00:06:01;;;;;;;23.33;11.27;;;8.50;95.00;;;;;;5101156;28;20207;-67
2021/10/09 00:08:31;;;;;;;24.50;11.60;;;8.60;95.20;;;;;;5104755;28;20193;-67
2021/10/09 00:10:58;;;;;;;22.20;11.07;;;8.50;95.30;;;;;;5104665;27;20215;-67
2021/10/09 00:13:25;;;;;;;22.40;11.00;;;8.50;95.40;;;;;;5110530;28;20195;-68
2021/10/09 00:15:52;;;;;;;24.37;11.13;;;8.50;95.60;;;;;;5106598;27;20192;-68
2021/10/09 00:18:19;;;;;;;25.10;11.67;;;8.50;95.70;;;;;;5106239;28;20550;-68
2021/10/09 00:20:46;;;;;;;24.97;11.50;;;8.40;95.80;;;;;;5107836;28;20192;-67
2021/10/09 00:23:13;;;;;;;24.27;11.40;;;8.40;96.00;;;;;;5106383;28;20843;-67
2021/10/09 00:25:41;;;;;;;25.53;11.83;;;8.40;96.10;;;;;;5110915;28;20883;-67
2021/10/09 00:28:08;;;;;;;23.90;11.67;;;8.40;96.20;;;;;;5113450;27;20248;-68
2021/10/09 00:30:35;;;;;;;22.57;11.33;;;8.30;96.30;;;;;;5117351;27;20298;-68
2021/10/09 00:33:02;;;;;;;24.33;12.07;;;8.30;96.40;;;;;;5120497;27;20207;-68
2021/10/09 00:35:29;;;;;;;25.17;11.83;;;8.30;96.60;;;;;;5116669;27;20195;-68
2021/10/09 00:37:56;;;;;;;25.00;12.13;;;8.30;96.70;;;;;;5111772;27;20667;-68
2021/10/09 00:40:24;;;;;;;21.23;11.23;;;8.20;96.70;;;;;;5111264;28;20249;-68
2021/10/09 00:42:52;;;;;;;26.37;11.67;;;8.20;96.90;;;;;;5106343;27;20192;-68
2021/10/09 00:45:19;;;;;;;25.00;11.70;;;8.20;97.00;;;;;;5105612;28;20663;-67
2021/10/09 00:47:46;;;;;;;25.20;11.87;;;8.20;97.10;;;;;;5109959;28;20216;-67
2021/10/09 00:50:14;;;;;;;26.10;11.17;;;8.20;97.20;;;;;;5110817;27;20222;-68
2021/10/09 00:52:42;;;;;;;22.30;10.87;;;8.10;97.30;;;;;;5109114;28;20675;-67
2021/10/09 00:55:11;;;;;;;20.27;10.53;;;8.10;97.40;;;;;;5111295;27;20299;-67
2021/10/09 00:57:41;;;;;;;25.13;10.80;;;8.10;97.50;;;;;;5108040;28;20661;-68
2021/10/09 01:00:11;;;;;;;19.47;9.77;;;8.10;97.90;;;;;;5111999;28;20225;-67
2021/10/09 01:02:38;;;;;;;19.23;9.90;;;8.10;97.70;;;;;;5108265;28;20235;-68
2021/10/09 01:05:08;;;;;;;19.40;10.03;;;8.00;97.70;;;;;;5110488;27;20210;-68
2021/10/09 01:07:35;;;;;;;17.83;9.37;;;8.00;97.80;;;;;;5109623;28;20226;-68
2021/10/09 01:10:04;;;;;;;18.63;9.23;;;8.00;97.90;;;;;;5111639;28;20212;-67
2021/10/09 01:12:32;;;;;;;16.57;8.37;;;8.00;98.00;;;;;;5106738;28;20241;-68
2021/10/09 01:14:59;;;;;;;17.63;9.17;;;8.00;98.10;;;;;;5118004;27;20278;-68
2021/10/09 01:17:29;;;;;;;20.17;9.23;;;7.90;98.10;;;;;;5109501;28;20318;-68
2021/10/09 01:19:56;;;;;;;18.27;9.27;;;7.90;98.20;;;;;;5108904;28;20688;-68
2021/10/09 01:22:24;;;;;;;19.40;9.07;;;7.90;98.20;;;;;;5104020;28;20219;-68
2021/10/09 01:24:51;;;;;;;19.53;9.83;;;7.90;98.30;;;;;;5109640;28;20227;-68
2021/10/09 01:27:18;;;;;;;14.33;8.20;;;7.90;98.40;;;;;;5106715;28;20248;-68
2021/10/09 01:29:47;;;;;;;20.47;8.67;;;7.90;98.40;;;;;;5109519;27;20252;-68
2021/10/09 01:32:16;;;;;;;17.20;8.80;;;7.80;98.40;;;;;;5120633;27;20547;-68
2021/10/09 01:34:43;;;;;;;17.43;9.00;;;7.80;98.50;;;;;;5098725;28;21056;-68
2021/10/09 01:37:15;;;;;;;15.97;8.73;;;7.80;98.50;;;;;;5100919;28;20212;-68
2021/10/09 01:39:46;;;;;;;14.57;7.90;;;7.80;98.60;;;;;;5110258;27;20559;-68
2021/10/09 01:42:19;;;;;;;15.40;8.20;;;7.70;98.60;;;;;;5106567;27;20226;-67
2021/10/09 01:44:49;;;;;;;16.67;8.57;;;7.70;98.70;;;;;;5109700;28;20203;-68
2021/10/09 01:47:16;;;;;;;14.00;7.83;;;7.70;98.70;;;;;;5107085;28;20608;-67
2021/10/09 01:49:44;;;;;;;17.07;8.17;;;7.60;98.80;;;;;;5109879;28;20218;-67
2021/10/09 01:52:12;;;;;;;16.57;7.93;;;7.70;99.20;;;;;;5108380;28;20722;-67
2021/10/09 01:54:39;;;;;;;16.73;7.80;;;7.60;98.90;;;;;;5108741;28;20701;-67
2021/10/09 01:57:08;;;;;;;14.73;7.43;;;7.60;99.00;;;;;;5108344;28;20639;-69
2021/10/09 01:59:36;;;;;;;13.60;7.33;;;7.50;99.00;;;;;;5106761;28;20200;-68
2021/10/09 02:02:09;;;;;;;16.33;8.17;;;7.50;99.10;;;;;;5108170;28;20206;-68
2021/10/09 02:04:38;;;;;;;13.53;7.57;;;7.50;99.10;;;;;;5108096;27;20242;-68
2021/10/09 02:07:07;;;;;;;12.83;6.87;;;7.50;99.20;;;;;;5110316;27;20206;-68
2021/10/09 02:09:34;;;;;;;12.23;6.83;;;7.50;99.20;;;;;;5113298;27;20221;-68
2021/10/09 02:12:03;;;;;;;11.90;6.03;;;7.40;99.20;;;;;;5107951;28;20313;-68
2021/10/09 02:14:38;;;;;;;12.27;6.23;;;7.40;99.30;;;;;;5106559;27;20566;-67
2021/10/09 02:25:38;;;;;;;11.30;6.70;;;7.30;99.50;;;;;;5030339;28;20577;-68
2021/10/09 02:28:06;;;;;;;13.13;6.70;;;7.30;99.50;;;;;;5025671;28;20261;-68
2021/10/09 02:30:34;;;;;;;11.73;6.70;;;7.30;99.60;;;;;;5030698;28;20340;-68
2021/10/09 02:33:02;;;;;;;13.30;7.20;;;7.20;99.60;;;;;;5035132;28;20310;-68
2021/10/09 02:35:31;;;;;;;12.03;6.10;;;7.20;99.70;;;;;;5036585;28;20268;-69
2021/10/09 02:37:58;;;;;;;10.43;5.90;;;7.20;99.70;;;;;;5026404;28;20304;-68
2021/10/09 02:40:27;;;;;;;13.07;6.17;;;7.20;99.80;;;;;;5047252;28;20215;-69
2021/10/09 02:42:55;;;;;;;13.10;5.77;;;7.20;99.80;;;;;;5027228;28;20214;-68
2021/10/09 02:45:23;;;;;;;12.70;5.67;;;7.20;99.90;;;;;;5029933;28;20233;-68
2021/10/09 02:47:51;;;;;;;9.63;5.87;;;7.10;99.90;;;;;;5029386;28;20200;-67
2021/10/09 02:50:18;;;;;;;10.53;5.67;;;7.10;99.90;;;;;;5029655;28;20241;-67
2021/10/09 02:52:48;;;;;;;11.93;6.07;;;7.10;99.90;;;;;;5028903;28;20680;-67
2021/10/09 02:55:18;;;;;;;12.47;6.07;;;7.10;99.90;;;;;;5029936;28;20798;-66
2021/10/09 02:57:45;;;;;;;12.30;5.87;;;7.10;99.90;;;;;;5091816;28;20200;-68
2021/10/09 03:00:14;;;;;;;11.23;5.80;;;7.10;99.90;;;;;;5108242;28;20213;-68
2021/10/09 03:02:41;;;;;;;10.67;5.60;;;7.10;99.90;;;;;;5106875;28;20228;-68
2021/10/09 03:05:11;;;;;;;9.63;5.37;;;7.00;99.90;;;;;;5107524;28;20593;-68
2021/10/09 03:07:39;;;;;;;11.37;6.00;;;7.00;99.90;;;;;;5106921;28;20251;-68
2021/10/09 03:10:09;;;;;;;10.80;5.43;;;7.10;99.90;;;;;;5110040;27;20212;-68
2021/10/09 03:12:37;;;;;;;9.87;5.33;;;7.00;99.90;;;;;;5105272;28;20290;-68
2021/10/09 03:15:04;;;;;;;8.23;5.10;;;7.00;99.90;;;;;;5107279;28;20193;-68
2021/10/09 03:17:32;;;;;;;9.40;5.20;;;7.00;99.90;;;;;;5107318;28;20757;-67
2021/10/09 03:20:03;;;;;;;10.77;5.10;;;7.00;99.90;;;;;;5102032;28;20207;-67
2021/10/09 03:22:31;;;;;;;8.20;4.93;;;7.00;99.90;;;;;;5109153;27;20218;-67
2021/10/09 03:24:59;;;;;;;8.37;4.93;;;7.00;99.90;;;;;;5107271;28;20661;-67
2021/10/09 03:27:26;;;;;;;7.57;4.77;;;7.00;99.90;;;;;;5105366;28;20675;-67
2021/10/09 03:29:53;;;;;;;8.87;5.30;;;7.00;99.90;;;;;;5107416;28;20225;-67
2021/10/09 03:32:20;;;;;;;9.30;5.50;;;7.00;99.90;;;;;;5107237;27;20254;-68
2021/10/09 03:34:47;;;;;;;7.90;4.97;;;7.00;99.90;;;;;;5107080;28;20300;-68
2021/10/09 03:37:14;;;;;;;9.10;5.00;;;7.00;99.90;;;;;;5107404;28;20292;-68
2021/10/09 03:39:46;;;;;;;7.47;4.43;;;6.90;99.90;;;;;;5108005;28;21186;-67
2021/10/09 03:42:16;;;;;;;9.03;4.53;;;7.00;99.90;;;;;;5100985;28;20222;-67
2021/10/09 03:44:48;;;;;;;7.80;4.50;;;6.90;99.90;;;;;;5107049;28;20681;-67
2021/10/09 03:47:22;;;;;;;8.27;4.70;;;6.90;99.90;;;;;;5104899;28;20204;-67
2021/10/09 03:49:53;;;;;;;7.70;4.30;;;6.90;99.90;;;;;;5107975;28;20207;-67
2021/10/09 03:52:38;;;;;;;7.23;4.30;;;6.90;99.90;;;;;;5106559;28;20208;-67
2021/10/09 03:55:09;;;;;;;7.50;4.80;;;6.90;99.90;;;;;;5099053;28;20220;-67
2021/10/09 03:57:37;;;;;;;8.73;4.17;;;6.90;99.90;;;;;;5108184;28;20257;-67
2021/10/09 04:00:06;;;;;;;6.30;4.00;;;6.90;99.90;;;;;;5111133;28;20310;-67
2021/10/09 04:02:42;;;;;;;6.43;4.03;;;6.90;99.90;;;;;;5111905;28;20255;-66
2021/10/09 04:05:12;;;;;;;5.77;4.00;;;7.20;99.90;;;;;;5110740;28;20256;-68
2021/10/09 04:07:39;;;;;;;8.03;4.70;;;6.90;99.90;;;;;;5110651;27;20212;-67
2021/10/09 04:10:10;;;;;;;6.27;4.30;;;6.90;99.90;;;;;;5114407;27;20220;-67
2021/10/09 04:12:38;;;;;;;7.00;4.37;;;6.80;99.90;;;;;;5111484;27;20195;-67
2021/10/09 04:15:09;;;;;;;7.20;4.50;;;6.90;99.90;;;;;;5117809;27;20904;-67
2021/10/09 04:17:37;;;;;;;5.40;3.97;;;6.80;99.90;;;;;;5114509;27;20253;-68
2021/10/09 04:20:08;;;;;;;5.53;4.10;;;6.80;99.90;;;;;;5110767;27;20212;-68
2021/10/09 04:22:36;;;;;;;7.70;4.03;;;6.80;99.90;;;;;;5109570;27;20672;-68
2021/10/09 04:25:03;;;;;;;7.97;4.77;;;6.80;99.90;;;;;;5110797;27;20201;-67
2021/10/09 04:27:32;;;;;;;8.40;5.23;;;6.80;99.90;;;;;;5108148;28;20207;-67
2021/10/09 04:29:59;;;;;;;9.97;5.17;;;6.80;99.90;;;;;;5111045;27;20200;-67
2021/10/09 04:32:26;;;;;;;11.97;6.27;;;6.80;99.90;;;;;;5110428;27;20205;-67
2021/10/09 04:34:55;;;;;;;17.00;7.50;;;6.80;99.90;;;;;;5115231;27;20261;-68
2021/10/09 04:37:24;;;;;;;25.70;8.47;;;6.70;99.90;;;;;;5115342;27;20249;-67
2021/10/09 04:39:51;;;;;;;30.47;9.80;;;6.80;99.90;;;;;;5120784;27;20219;-67
2021/10/09 04:42:21;;;;;;;28.53;9.50;;;6.70;99.90;;;;;;5116866;27;20224;-67
2021/10/09 04:44:50;;;;;;;26.30;8.33;;;6.70;99.90;;;;;;5112940;27;20211;-67
2021/10/09 04:47:17;;;;;;;26.20;8.80;;;6.70;99.90;;;;;;5108120;28;20211;-67
2021/10/09 04:49:44;;;;;;;23.97;8.37;;;6.70;99.90;;;;;;5110769;28;20237;-67
2021/10/09 04:52:12;;;;;;;18.00;7.03;;;6.70;99.90;;;;;;5110500;28;20227;-67
2021/10/09 04:54:40;;;;;;;23.90;7.70;;;6.60;99.90;;;;;;5110766;28;20535;-67
2021/10/09 04:57:07;;;;;;;22.10;7.80;;;6.60;99.90;;;;;;5109320;28;20232;-68
2021/10/09 04:59:35;;;;;;;19.50;7.93;;;6.60;99.90;;;;;;5108128;28;20196;-68
2021/10/09 05:02:04;;;;;;;14.90;6.50;;;6.60;99.90;;;;;;5108756;28;20212;-68
2021/10/09 05:04:32;;;;;;;16.73;7.27;;;6.60;99.90;;;;;;5110023;28;20731;-68
2021/10/09 05:07:00;;;;;;;16.40;7.00;;;6.70;99.90;;;;;;5109166;28;20640;-68
2021/10/09 05:09:27;;;;;;;19.70;7.07;;;6.60;99.90;;;;;;5110153;28;20201;-68
2021/10/09 05:11:54;;;;;;;14.63;6.63;;;6.60;99.90;;;;;;5110822;28;20352;-68
2021/10/09 05:14:21;;;;;;;16.00;6.73;;;6.60;99.90;;;;;;5108425;28;20246;-68
2021/10/09 05:16:52;;;;;;;18.23;6.53;;;6.60;99.90;;;;;;5105894;28;20282;-68
2021/10/09 05:19:20;;;;;;;12.67;5.70;;;6.60;99.90;;;;;;5110043;28;20270;-68
2021/10/09 05:21:47;;;;;;;15.43;6.87;;;6.60;99.90;;;;;;5109648;28;20194;-68
2021/10/09 05:24:16;;;;;;;14.83;6.70;;;6.60;99.90;;;;;;5109583;28;20253;-68
2021/10/09 05:26:43;;;;;;;14.00;6.63;;;6.70;99.90;;;;;;5108495;27;20294;-68
2021/10/09 05:29:15;;;;;;;14.77;6.60;;;6.60;99.90;;;;;;5107715;28;20256;-67
2021/10/09 05:31:42;;;;;;;14.00;6.93;;;6.60;99.90;;;;;;5109540;28;20225;-67
2021/10/09 05:34:11;;;;;;;13.20;6.13;;;6.70;99.90;;;;;;5109300;27;20264;-67
2021/10/09 05:36:39;;;;;;;13.20;5.80;;;6.70;99.90;;;;;;5106350;28;20200;-67
2021/10/09 05:39:06;;;;;;;13.73;5.63;;;6.70;99.90;;;;;;5108995;27;20250;-67
2021/10/09 05:41:35;;;;;;;11.27;5.57;;;6.70;99.90;;;;;;5110205;28;20208;-69
2021/10/09 05:44:07;;;;;;;12.17;6.00;;;6.70;99.90;;;;;;5099438;27;20656;-68
2021/10/09 05:46:34;;;;;;;11.53;5.27;;;6.70;99.90;;;;;;5109117;28;20219;-67
2021/10/09 05:49:01;;;;;;;8.00;5.10;;;6.80;99.90;;;;;;5108264;28;20277;-67
2021/10/09 05:51:32;;;;;;;10.47;5.43;;;6.80;99.90;;;;;;5109893;28;20232;-68
2021/10/09 05:54:11;;;;;;;9.57;5.33;;;6.80;99.90;;;;;;5108916;28;20233;-68
2021/10/09 06:25:00;;;;;;;8.07;4.60;;;7.00;99.90;;;;;;5110018;28;20195;-68
2021/10/09 06:49:33;;;;;;;17.10;8.43;;;8.70;99.90;;;;;;4963196;28;20285;-67
2021/10/09 07:00:20;;;;;;;13.17;8.27;;;14.00;96.70;;;;;;4968291;28;20767;-68
2021/10/09 07:02:51;;;;;;;14.77;7.57;;;15.30;94.60;;;;;;4950730;28;20310;-68
2021/10/09 07:05:19;;;;;;;16.13;8.87;;;16.40;92.60;;;;;;4966876;28;20211;-67
2021/10/09 07:08:09;;;;;;;17.07;9.10;;;17.40;90.60;;;;;;4966302;28;20208;-69
2021/10/09 07:10:46;;;;;;;12.53;8.07;;;18.50;86.10;;;;;;4968091;28;20220;-67
2021/10/09 07:13:13;;;;;;;13.47;8.10;;;19.40;81.40;;;;;;4948877;28;20352;-68
2021/10/09 07:15:42;;;;;;;16.83;8.23;;;20.10;77.70;;;;;;4967098;28;20271;-69
2021/10/09 07:18:11;;;;;;;12.73;7.30;;;20.80;74.30;;;;;;4949731;28;20221;-69
2021/10/09 07:20:40;;;;;;;11.20;7.40;;;21.40;71.30;;;;;;4984850;28;20203;-69
2021/10/09 07:23:11;;;;;;;11.65;7.72;;;21.90;68.30;;;;;;5047588;28;20748;-68
2021/10/09 07:25:39;;;;;;;13.10;7.67;;;22.30;65.90;;;;;;5100478;28;20583;-68
2021/10/09 07:28:06;;;;;;;12.98;7.47;;;22.70;62.20;;;;;;5103668;28;20208;-67
2021/10/09 07:30:33;;;;;;;11.93;7.03;;;23.10;60.70;;;;;;5113445;27;20232;-68
2021/10/09 07:33:01;;;;;;;9.27;7.07;;;23.60;59.90;;;;;;5106787;27;20330;-68
2021/10/09 07:35:28;;;;;;;11.70;6.72;;;23.90;57.90;;;;;;5116074;27;20231;-68
2021/10/09 07:37:55;;;;;;;10.00;7.25;;;24.10;56.50;;;;;;5118352;27;20188;-69
2021/10/09 07:40:22;;;;;;;10.35;7.00;;;24.20;55.60;;;;;;5119623;28;20187;-73
2021/10/09 07:42:50;;;;;;;10.57;6.72;;;24.20;55.00;;;;;;5121061;27;20799;-68
2021/10/09 07:45:17;;;;;;;12.30;7.22;;;24.20;54.00;;;;;;5107956;28;20196;-69
2021/10/09 07:47:43;;;;;;;12.95;8.25;;;24.20;53.50;;;;;;5105692;28;20276;-69
2021/10/09 07:50:13;;;;;;;14.35;8.20;;;24.40;52.40;;;;;;5107052;28;20225;-69
2021/10/09 07:52:41;;;;;;;11.05;7.68;;;24.90;51.30;;;;;;5108288;28;20687;-69
2021/10/09 07:55:09;;;;;;;10.52;7.82;;;25.50;50.10;;;;;;5109533;28;20699;-68
2021/10/09 07:57:36;;;;;;;10.77;6.90;;;26.10;48.90;;;;;;5104572;28;20800;-69
2021/10/09 08:00:05;;;;;;;10.45;6.88;;;26.70;47.90;;;;;;5103511;28;20754;-69
2021/10/09 08:02:46;;;;;;;8.63;6.30;;;27.20;46.60;;;;;;5107941;28;20246;-68
2021/10/09 08:05:15;;;;;;;6.90;5.35;;;27.80;45.30;;;;;;5106597;28;21029;-68
2021/10/09 08:07:42;;;;;;;6.40;5.57;;;28.30;44.60;;;;;;5110207;28;20755;-69
2021/10/09 08:10:10;;;;;;;11.25;6.63;;;28.70;43.20;;;;;;5111449;27;20283;-69
2021/10/09 08:12:37;;;;;;;9.93;6.68;;;29.10;42.20;;;;;;5108429;28;20243;-69
2021/10/09 08:15:04;;;;;;;9.63;6.95;;;29.60;41.40;;;;;;5103680;28;20660;-69
2021/10/09 08:17:31;;;;;;;11.60;8.15;;;30.00;40.30;;;;;;5105782;28;20284;-69
2021/10/09 08:19:58;;;;;;;12.77;7.90;;;30.40;39.10;;;;;;5111704;27;20279;-69
2021/10/09 08:22:27;;;;;;;12.65;8.07;;;30.90;38.70;;;;;;5108288;28;20196;-69
2021/10/09 08:25:00;;;;;;;14.38;7.80;;;31.40;37.80;;;;;;5107450;28;20187;-69
2021/10/09 08:27:46;;;;;;;9.02;7.35;;;31.70;36.80;;;;;;5109899;28;20328;-68
2021/10/09 08:36:00;;;;;;;8.50;7.05;;;32.80;33.90;;;;;;5103579;28;20211;-69
2021/10/09 08:38:49;;;;;;;9.95;6.85;;;33.10;33.30;;;;;;5105318;28;20555;-69
2021/10/09 08:41:17;;;;;;;14.52;7.70;;;33.50;32.80;;;;;;5102837;28;20199;-68
2021/10/09 08:43:44;;;;;;;11.13;7.38;;;34.00;32.40;;;;;;5105805;27;20211;-68
2021/10/09 08:46:11;;;;;;;10.73;7.47;;;34.30;31.50;;;;;;5098539;28;20666;-67
2021/10/09 08:48:42;;;;;;;8.73;7.10;;;34.60;30.70;;;;;;5107995;27;20227;-69
2021/10/09 08:51:09;;;;;;;10.63;7.50;;;35.00;30.20;;;;;;5109601;27;20609;-68
2021/10/09 08:53:40;;;;;;;10.13;7.63;;;35.50;29.50;;;;;;5111204;27;20662;-68
2021/10/09 08:56:07;;;;;;;12.13;7.95;;;35.90;28.70;;;;;;5111949;27;20618;-68
2021/10/09 08:58:37;;;;;;;9.18;7.10;;;36.40;28.50;;;;;;5108528;27;20204;-69
2021/10/09 09:01:10;;;;;;;11.75;7.50;;;36.80;28.30;;;;;;5106728;27;20276;-69
2021/10/09 09:04:08;;;;;;;13.60;9.05;;;37.30;27.70;;;;;;5107884;27;20220;-69
2021/10/09 09:07:00;;;;;;;14.23;9.23;;;37.70;27.40;;;;;;5107623;28;20203;-69
2021/10/09 09:26:26;;;;;;;12.85;8.50;;;35.20;27.30;;;;;;5047801;28;20202;-67
2021/10/09 09:34:50;;;;;;;11.27;8.70;;;36.00;26.90;;;;;;5034544;28;20201;-67
2021/10/09 09:37:40;;;;;;;10.23;8.35;;;36.30;26.20;;;;;;5052556;28;20232;-67
2021/10/09 09:40:09;;;;;;;7.53;6.75;;;36.30;26.00;;;;;;5041785;28;20201;-67
2021/10/09 09:42:45;;;;;;;8.30;6.90;;;36.40;26.30;;;;;;5052584;28;20206;-67
2021/10/09 09:45:19;;;;;;;8.80;6.55;;;36.70;26.10;;;;;;5048645;28;20292;-67
2021/10/09 09:47:47;;;;;;;6.60;6.00;;;37.00;26.10;;;;;;5046986;28;20240;-67
2021/10/09 09:50:16;;;;;;;10.45;6.68;;;37.20;25.70;;;;;;5099160;28;20308;-66
2021/10/09 09:52:45;;;;;;;8.93;6.55;;;37.30;25.30;;;;;;5108991;28;20220;-66
2021/10/09 09:55:13;;;;;;;6.07;5.47;;;37.30;25.00;;;;;;5110285;28;20203;-67
2021/10/09 09:57:41;;;;;;;6.60;5.90;;;37.40;25.10;;;;;;5108393;28;20203;-67
2021/10/09 10:00:12;;;;;;;7.85;6.10;;;37.60;25.00;;;;;;5108775;28;20821;-67
2021/10/09 10:02:43;;;;;;;6.32;5.63;;;37.80;24.80;;;;;;5110404;28;20216;-66
2021/10/09 10:05:12;;;;;;;6.45;5.57;;;37.90;24.60;;;;;;5109061;28;20199;-67
2021/10/09 10:07:39;;;;;;;6.07;5.47;;;37.70;24.00;;;;;;5108432;28;20211;-67
2021/10/09 10:10:08;;;;;;;5.50;5.07;;;37.60;23.90;;;;;;5108687;28;20598;-67
2021/10/09 10:12:36;;;;;;;5.47;5.00;;;37.50;23.60;;;;;;5106510;28;20235;-67
2021/10/09 10:15:07;;;;;;;4.82;4.43;;;37.60;23.90;;;;;;5109273;27;20210;-66
2021/10/09 10:17:41;;;;;;;5.95;4.57;;;37.70;24.00;;;;;;5108221;28;20660;-67
2021/10/09 10:20:10;;;;;;;4.45;4.15;;;37.90;23.70;;;;;;5104658;28;20329;-67
2021/10/09 10:22:56;;;;;;;4.30;4.00;;;38.10;23.40;;;;;;5104491;28;20184;-67
2021/10/09 10:25:29;;;;;;;4.43;4.03;;;38.20;23.20;;;;;;5110557;28;20221;-67
2021/10/09 10:28:01;;;;;;;4.30;3.90;;;38.20;23.00;;;;;;5112683;27;20246;-67
2021/10/09 10:30:31;;;;;;;4.13;3.72;;;38.20;23.00;;;;;;5110378;28;20203;-67
2021/10/09 10:33:44;;;;;;;3.38;3.08;;;38.30;22.70;;;;;;5108624;28;20740;-68
2021/10/09 10:36:34;;;;;;;3.00;2.90;;;38.20;22.80;;;;;;5110534;27;20195;-67
2021/10/09 10:39:01;;;;;;;4.75;4.45;;;38.10;22.80;;;;;;5107099;28;20697;-67
2021/10/09 10:41:43;;;;;;;4.65;4.25;;;38.10;22.90;;;;;;5109003;28;20203;-67
2021/10/09 10:44:13;;;;;;;5.18;4.72;;;38.30;22.80;;;;;;5107911;28;20211;-67
2021/10/09 10:46:44;;;;;;;4.57;4.10;;;38.30;22.30;;;;;;5109262;28;20191;-67
2021/10/09 10:49:19;;;;;;;7.60;4.38;;;38.30;22.30;;;;;;5108188;28;20191;-67
2021/10/09 10:51:54;;;;;;;6.82;5.38;;;38.20;22.50;;;;;;5108172;28;20226;-68
2021/10/09 10:54:30;;;;;;;8.45;5.10;;;38.20;22.20;;;;;;5098520;28;20210;-68
2021/10/09 10:57:25;;;;;;;6.85;5.13;;;38.20;21.90;;;;;;5108918;28;20595;-67
2021/10/09 11:00:13;;;;;;;12.20;4.85;;;38.10;21.80;;;;;;5105601;28;20200;-67
2021/10/09 11:02:46;;;;;;;5.70;4.32;;;38.00;21.60;;;;;;5109564;28;20219;-67
2021/10/09 11:05:14;;;;;;;4.03;3.72;;;37.80;21.70;;;;;;5109273;28;20195;-68
2021/10/09 11:07:44;;;;;;;4.53;3.90;;;37.60;22.20;;;;;;5107693;28;20203;-67
2021/10/09 11:10:12;;;;;;;3.55;3.28;;;37.30;21.80;;;;;;5108127;28;20221;-67
2021/10/09 11:12:40;;;;;;;3.83;3.53;;;37.10;21.90;;;;;;5107480;27;20213;-67
2021/10/09 11:15:11;;;;;;;3.92;3.63;;;36.80;21.90;;;;;;5108375;28;20206;-67
2021/10/09 11:17:40;;;;;;;4.90;3.35;;;36.20;22.10;;;;;;5102152;28;20192;-67
2021/10/09 11:20:08;;;;;;;4.03;3.72;;;35.50;22.40;;;;;;5105984;28;20218;-67
2021/10/09 11:22:42;;;;;;;5.22;4.05;;;35.10;22.80;;;;;;5108695;27;20271;-67
2021/10/09 11:25:11;;;;;;;4.00;3.70;;;35.10;22.90;;;;;;5109549;28;20628;-67
2021/10/09 11:27:39;;;;;;;3.42;3.20;;;35.10;22.70;;;;;;5107361;27;20199;-66
2021/10/09 11:30:08;;;;;;;4.28;3.88;;;35.20;22.80;;;;;;5115011;27;20294;-67
2021/10/09 11:32:37;;;;;;;4.05;3.75;;;35.20;22.70;;;;;;5116760;27;20747;-67
2021/10/09 11:35:05;;;;;;;4.22;3.83;;;35.00;22.60;;;;;;5116609;27;20303;-66
2021/10/09 11:37:34;;;;;;;4.18;3.78;;;34.30;22.70;;;;;;5111229;27;20206;-67
2021/10/09 11:40:03;;;;;;;6.90;4.25;;;33.30;23.10;;;;;;5107049;28;20237;-67
2021/10/09 11:42:33;;;;;;;3.67;3.40;;;32.20;23.30;;;;;;5106759;28;20275;-67
2021/10/09 11:45:15;;;;;;;3.85;3.55;;;31.20;23.80;;;;;;5109026;28;20656;-67
2021/10/09 11:53:37;;;;;;;3.25;2.95;;;28.80;25.50;;;;;;5104196;28;20215;-69
2021/10/09 11:56:08;;;;;;;2.90;2.60;;;28.10;25.90;;;;;;5105023;28;20253;-69
2021/10/09 11:58:47;;;;;;;4.15;3.30;;;27.40;26.10;;;;;;5106967;27;20223;-69
2021/10/09 12:01:44;;;;;;;3.10;2.80;;;26.70;26.40;;;;;;5105743;28;20927;-69
2021/10/09 12:04:21;;;;;;;6.97;5.70;;;26.00;26.90;;;;;;5097999;28;20454;-69
2021/10/09 12:06:52;;;;;;;5.50;4.85;;;25.60;27.20;;;;;;5102002;28;20472;-69
2021/10/09 12:09:38;;;;;;;4.93;4.43;;;25.20;27.60;;;;;;5099392;28;20198;-68
2021/10/09 12:12:15;;;;;;;3.92;3.50;;;24.70;27.90;;;;;;5107581;27;20195;-69
2021/10/09 12:14:42;;;;;;;3.33;3.03;;;24.30;28.10;;;;;;5108960;28;20201;-68
2021/10/09 12:17:10;;;;;;;3.38;2.85;;;24.00;28.40;;;;;;5106739;28;20196;-68
2021/10/09 12:19:38;;;;;;;4.45;3.10;;;23.70;28.70;;;;;;5112056;27;20203;-67
2021/10/09 12:22:07;;;;;;;2.85;2.65;;;23.30;28.90;;;;;;5108990;27;20211;-68
2021/10/09 12:24:45;;;;;;;2.95;2.70;;;23.10;29.20;;;;;;5107933;27;20440;-68
2021/10/09 12:27:16;;;;;;;2.45;2.30;;;23.00;29.80;;;;;;5105966;27;20571;-67
2021/10/09 12:29:58;;;;;;;2.45;2.28;;;22.70;29.80;;;;;;5104254;27;20210;-69
2021/10/09 12:32:26;;;;;;;2.10;2.00;;;22.40;30.00;;;;;;5107893;27;20241;-68
2021/10/09 12:35:04;;;;;;;2.47;2.28;;;22.20;30.30;;;;;;5105969;27;20196;-74
2021/10/09 12:37:37;;;;;;;3.13;2.83;;;22.00;30.30;;;;;;5109980;27;20207;-74
2021/10/09 12:40:26;;;;;;;2.88;2.55;;;21.70;30.20;;;;;;5107131;27;20196;-76
2021/10/09 12:42:59;;;;;;;2.38;2.17;;;21.50;30.30;;;;;;5110921;27;20571;-74
2021/10/09 12:45:29;;;;;;;1.90;1.80;;;21.30;30.30;;;;;;5102570;28;20208;-74
2021/10/09 12:47:59;;;;;;;2.35;2.15;;;21.10;30.40;;;;;;5106885;28;20211;-74
2021/10/09 12:50:30;;;;;;;4.65;2.58;;;20.90;30.60;;;;;;5106334;28;20196;-74
2021/10/09 12:52:58;;;;;;;2.88;2.10;;;20.70;31.00;;;;;;5106797;28;20222;-74
2021/10/09 12:55:33;;;;;;;2.58;2.30;;;20.50;31.20;;;;;;5106634;28;20682;-75
2021/10/09 12:58:04;;;;;;;4.05;2.47;;;20.20;31.50;;;;;;5105583;28;20571;-75
2021/10/09 13:00:34;;;;;;;2.70;2.30;;;20.00;31.90;;;;;;5108655;27;20252;-74
2021/10/09 13:03:04;;;;;;;2.50;2.30;;;19.90;32.20;;;;;;5106776;28;20272;-73
2021/10/09 13:05:34;;;;;;;2.38;2.20;;;19.80;32.60;;;;;;5107254;28;20202;-75
2021/10/09 13:08:05;;;;;;;2.20;2.10;;;19.60;32.70;;;;;;5107778;27;20196;-75
2021/10/09 13:10:37;;;;;;;3.22;2.55;;;19.60;33.10;;;;;;5109507;27;20200;-74
2021/10/09 13:13:10;;;;;;;2.42;2.20;;;19.40;33.50;;;;;;5105008;27;20220;-73
2021/10/09 13:15:38;;;;;;;2.30;2.10;;;19.30;33.50;;;;;;5107629;28;20199;-73
2021/10/09 13:18:05;;;;;;;2.35;2.13;;;19.30;33.80;;;;;;5107322;27;20702;-74
2021/10/09 13:20:36;;;;;;;2.83;2.25;;;19.30;33.90;;;;;;5105164;28;20207;-73
2021/10/09 13:23:03;;;;;;;2.05;1.92;;;19.20;33.80;;;;;;5114356;27;20302;-75
2021/10/09 13:25:31;;;;;;;1.80;1.60;;;19.10;33.80;;;;;;5107422;28;20192;-74
2021/10/09 13:27:59;;;;;;;1.80;1.70;;;19.10;33.80;;;;;;5109984;27;20211;-73
2021/10/09 13:30:28;;;;;;;1.75;1.58;;;19.10;33.70;;;;;;5108652;27;20195;-74
2021/10/09 13:32:55;;;;;;;2.85;1.80;;;19.10;33.70;;;;;;5110042;27;20218;-73
2021/10/09 13:35:22;;;;;;;5.88;1.80;;;19.00;33.60;;;;;;5109894;27;20675;-74
2021/10/09 13:37:51;;;;;;;1.70;1.60;;;19.00;33.70;;;;;;5108927;27;20249;-72
2021/10/09 13:40:18;;;;;;;2.13;1.77;;;18.90;33.70;;;;;;5104096;27;20649;-75
2021/10/09 13:42:46;;;;;;;1.90;1.80;;;18.80;33.80;;;;;;5107309;27;20206;-73
2021/10/09 13:45:13;;;;;;;2.45;2.30;;;18.70;34.00;;;;;;5105904;28;20750;-75
2021/10/09 13:47:42;;;;;;;4.18;2.70;;;18.60;35.30;;;;;;5108548;28;20203;-75
2021/10/09 13:50:10;;;;;;;2.53;2.33;;;18.60;36.00;;;;;;5108541;27;20602;-74
2021/10/09 13:52:37;;;;;;;3.10;2.80;;;18.50;36.60;;;;;;5106842;28;20881;-73
2021/10/09 13:55:05;;;;;;;3.83;3.08;;;18.40;37.70;;;;;;5107198;27;20438;-73
2021/10/09 13:57:32;;;;;;;3.00;2.80;;;18.40;39.00;;;;;;5103460;27;20442;-73
2021/10/09 13:59:59;;;;;;;3.25;2.95;;;18.40;39.60;;;;;;5104364;27;20440;-73
2021/10/09 14:02:30;;;;;;;3.17;2.88;;;18.50;40.50;;;;;;5118837;27;20883;-74
2021/10/09 14:04:59;;;;;;;4.65;3.30;;;18.60;40.80;;;;;;5106169;27;20190;-73
2021/10/09 14:07:26;;;;;;;3.83;2.75;;;18.50;40.90;;;;;;5107977;27;20191;-74
2021/10/09 14:09:53;;;;;;;2.72;2.53;;;18.40;40.80;;;;;;5106430;27;20217;-73
2021/10/09 14:12:20;;;;;;;3.35;2.28;;;18.30;40.60;;;;;;5102860;28;20216;-74
2021/10/09 14:14:47;;;;;;;3.35;2.63;;;18.20;40.60;;;;;;5107691;27;20214;-74
2021/10/09 14:17:14;;;;;;;3.55;2.65;;;18.10;40.80;;;;;;5105882;27;20591;-75
2021/10/09 14:19:41;;;;;;;2.95;2.75;;;18.00;41.10;;;;;;5107389;27;20688;-73
2021/10/09 14:22:09;;;;;;;2.75;2.55;;;17.90;41.20;;;;;;5106227;27;20194;-73
2021/10/09 14:24:36;;;;;;;4.25;2.85;;;17.80;41.40;;;;;;5107530;27;20443;-74
2021/10/09 14:27:04;;;;;;;4.47;4.03;;;17.80;41.80;;;;;;5106389;27;20673;-74
2021/10/09 14:29:30;;;;;;;3.63;3.00;;;17.70;42.20;;;;;;5105336;27;20530;-73
2021/10/09 14:31:57;;;;;;;2.40;2.20;;;17.60;42.50;;;;;;5107372;28;20202;-73
2021/10/09 14:34:24;;;;;;;2.35;2.15;;;17.50;42.30;;;;;;5108610;27;20225;-74
2021/10/09 14:36:51;;;;;;;2.92;2.63;;;17.50;42.30;;;;;;5106563;27;20790;-73
2021/10/09 14:39:20;;;;;;;2.85;2.60;;;17.60;42.50;;;;;;5109260;27;20849;-74
2021/10/09 14:41:47;;;;;;;3.20;2.58;;;17.60;42.50;;;;;;5104115;27;20445;-72